createdAt,value
2018-04-11T00:00:52.777Z,9.30
2018-04-11T00:03:25.886Z,9.30
2018-04-11T00:05:58.257Z,9.30
2018-04-11T00:08:30.630Z,9.20
2018-04-11T00:11:03.081Z,9.20
2018-04-11T00:13:35.643Z,9.10
2018-04-11T00:16:07.996Z,9.10
2018-04-11T00:18:41.140Z,9.10
2018-04-11T00:21:13.558Z,9.00
2018-04-11T00:23:46.614Z,9.00
2018-04-11T00:26:18.933Z,9.00
2018-04-11T00:28:51.311Z,9.00
2018-04-11T00:31:23.898Z,9.00
2018-04-11T00:33:56.348Z,8.80
2018-04-11T00:36:28.893Z,8.80
2018-04-11T00:39:02.108Z,8.70
2018-04-11T00:41:34.420Z,8.70
2018-04-11T00:44:07.495Z,8.70
2018-04-11T00:46:40.685Z,8.70
2018-04-11T00:49:13.865Z,8.70
2018-04-11T00:51:46.505Z,8.60
2018-04-11T00:54:19.657Z,8.60
2018-04-11T00:56:52.105Z,8.60
2018-04-11T00:59:24.572Z,8.60
2018-04-11T01:01:57.367Z,8.70
2018-04-11T01:04:29.735Z,8.60
2018-04-11T01:07:02.210Z,8.70
2018-04-11T01:09:35.534Z,8.70
2018-04-11T01:12:08.611Z,8.60
2018-04-11T01:14:40.987Z,8.60
2018-04-11T01:17:14.213Z,8.60
2018-04-11T01:19:47.267Z,8.60
2018-04-11T01:22:20.505Z,8.50
2018-04-11T01:24:52.842Z,8.50
2018-04-11T01:27:25.140Z,8.50
2018-04-11T01:29:57.504Z,8.40
2018-04-11T01:32:30.650Z,8.40
2018-04-11T01:35:03.971Z,8.40
2018-04-11T01:37:36.551Z,8.30
2018-04-11T01:40:08.895Z,8.40
2018-04-11T01:42:41.255Z,8.30
2018-04-11T01:45:13.641Z,8.30
2018-04-11T01:47:46.006Z,8.30
2018-04-11T01:50:18.368Z,8.30
2018-04-11T01:52:50.819Z,8.30
2018-04-11T01:55:23.359Z,8.30
2018-04-11T01:57:56.551Z,8.20
2018-04-11T02:00:28.906Z,8.20
2018-04-11T02:03:01.375Z,8.20
2018-04-11T02:05:34.680Z,8.10
2018-04-11T02:08:07.148Z,8.10
2018-04-11T02:10:40.505Z,8.10
2018-04-11T02:13:12.951Z,8.10
2018-04-11T02:15:45.380Z,8.10
2018-04-11T02:18:17.743Z,8.10
2018-04-11T02:20:50.127Z,8.00
2018-04-11T02:23:23.274Z,7.90
2018-04-11T02:25:56.450Z,7.90
2018-04-11T02:28:28.932Z,7.80
2018-04-11T02:31:02.076Z,7.70
2018-04-11T02:33:34.677Z,7.70
2018-04-11T02:36:07.011Z,7.60
2018-04-11T02:38:39.444Z,7.60
2018-04-11T02:41:11.987Z,7.50
2018-04-11T02:43:44.368Z,7.40
2018-04-11T02:46:17.520Z,7.40
2018-04-11T02:48:49.947Z,7.30
2018-04-11T02:51:22.396Z,7.30
2018-04-11T02:53:54.824Z,7.30
2018-04-11T02:56:27.202Z,7.20
2018-04-11T02:58:59.646Z,7.20
2018-04-11T03:01:32.319Z,7.20
2018-04-11T03:04:04.737Z,7.10
2018-04-11T03:06:37.195Z,7.10
2018-04-11T03:09:09.615Z,6.90
2018-04-11T03:11:42.062Z,6.80
2018-04-11T03:14:14.419Z,6.60
2018-04-11T03:16:46.803Z,6.70
2018-04-11T03:19:19.109Z,6.50
2018-04-11T03:21:52.228Z,6.50
2018-04-11T03:24:24.593Z,6.50
2018-04-11T03:26:56.945Z,6.40
2018-04-11T03:29:29.357Z,6.40
2018-04-11T03:32:01.709Z,6.50
2018-04-11T03:34:34.142Z,6.50
2018-04-11T03:37:07.434Z,6.60
2018-04-11T03:39:39.901Z,6.50
2018-04-11T03:42:12.467Z,6.60
2018-04-11T03:44:45.157Z,6.60
2018-04-11T03:47:17.804Z,6.60
2018-04-11T03:49:50.452Z,6.60
2018-04-11T03:52:23.797Z,6.70
2018-04-11T03:54:56.398Z,6.60
2018-04-11T03:57:29.092Z,6.70
2018-04-11T04:00:01.742Z,6.70
2018-04-11T04:02:34.340Z,6.80
2018-04-11T04:05:06.831Z,6.70
2018-04-11T04:07:39.364Z,6.70
2018-04-11T04:10:11.821Z,6.60
2018-04-11T04:12:45.145Z,6.60
2018-04-11T04:15:29.909Z,6.60
2018-04-11T04:18:14.629Z,6.60
2018-04-11T04:20:47.105Z,6.60
2018-04-11T04:23:19.487Z,6.60
2018-04-11T04:25:51.851Z,6.70
2018-04-11T04:28:24.195Z,6.60
2018-04-11T04:30:56.610Z,6.50
2018-04-11T04:33:29.090Z,6.50
2018-04-11T04:36:01.730Z,6.50
2018-04-11T04:38:34.311Z,6.60
2018-04-11T04:41:07.021Z,6.60
2018-04-11T04:43:40.248Z,6.60
2018-04-11T04:46:12.728Z,6.50
2018-04-11T04:48:45.165Z,6.60
2018-04-11T04:51:17.526Z,6.50
2018-04-11T04:53:50.088Z,6.50
2018-04-11T04:56:22.448Z,6.50
2018-04-11T04:58:55.023Z,6.50
2018-04-11T05:01:27.414Z,6.50
2018-04-11T05:03:59.809Z,6.50
2018-04-11T05:06:33.144Z,6.60
2018-04-11T05:09:06.530Z,6.60
2018-04-11T05:11:39.000Z,6.60
2018-04-11T05:14:11.504Z,6.70
2018-04-11T05:16:44.084Z,6.60
2018-04-11T05:19:17.258Z,6.70
2018-04-11T05:21:50.415Z,6.70
2018-04-11T05:24:22.892Z,6.60
2018-04-11T05:26:55.481Z,6.70
2018-04-11T05:29:27.853Z,6.70
2018-04-11T05:32:01.367Z,6.70
2018-04-11T05:34:33.920Z,6.70
2018-04-11T05:37:06.328Z,6.80
2018-04-11T05:39:38.623Z,6.70
2018-04-11T05:42:11.108Z,6.80
2018-04-11T05:44:43.430Z,6.80
2018-04-11T05:47:15.858Z,6.80
2018-04-11T05:49:48.265Z,6.80
2018-04-11T05:52:20.731Z,6.90
2018-04-11T05:54:53.103Z,6.80
2018-04-11T05:57:26.181Z,6.90
2018-04-11T05:59:59.368Z,6.90
2018-04-11T06:02:31.818Z,6.90
2018-04-11T06:05:05.074Z,7.00
2018-04-11T06:07:37.379Z,7.00
2018-04-11T06:10:09.862Z,7.10
2018-04-11T06:12:42.379Z,7.10
2018-04-11T06:15:14.891Z,7.10
2018-04-11T06:17:47.277Z,7.20
2018-04-11T06:20:19.563Z,7.20
2018-04-11T06:22:52.026Z,7.20
2018-04-11T06:25:24.388Z,7.30
2018-04-11T06:27:56.753Z,7.20
2018-04-11T06:30:29.179Z,7.30
2018-04-11T06:33:02.486Z,7.50
2018-04-11T06:35:34.881Z,7.50
2018-04-11T06:38:07.209Z,7.60
2018-04-11T06:40:39.610Z,7.70
2018-04-11T06:43:12.778Z,7.80
2018-04-11T06:45:45.225Z,7.70
2018-04-11T06:48:17.589Z,7.90
2018-04-11T06:50:50.098Z,7.90
2018-04-11T06:53:22.403Z,7.90
2018-04-11T06:55:54.741Z,7.90
2018-04-11T06:58:27.240Z,7.90
2018-04-11T07:01:00.330Z,8.00
2018-04-11T07:03:32.766Z,8.00
2018-04-11T07:06:05.258Z,8.00
2018-04-11T07:08:37.664Z,8.00
2018-04-11T07:11:10.065Z,8.10
2018-04-11T07:13:42.673Z,8.10
2018-04-11T07:16:15.087Z,8.10
2018-04-11T07:18:48.262Z,8.20
2018-04-11T07:21:20.738Z,8.10
2018-04-11T07:23:53.206Z,8.20
2018-04-11T07:26:26.237Z,8.30
2018-04-11T07:28:59.457Z,8.30
2018-04-11T07:31:31.886Z,8.30
2018-04-11T07:34:04.293Z,8.40
2018-04-11T07:36:36.629Z,8.40
2018-04-11T07:39:08.933Z,8.50
2018-04-11T07:41:41.488Z,8.50
2018-04-11T07:44:14.029Z,8.50
2018-04-11T07:46:46.641Z,8.60
2018-04-11T07:49:19.176Z,8.70
2018-04-11T07:51:51.617Z,8.70
2018-04-11T07:54:24.292Z,8.80
2018-04-11T07:56:57.404Z,8.90
2018-04-11T07:59:29.888Z,8.90
2018-04-11T08:02:02.327Z,9.00
2018-04-11T08:04:35.497Z,9.10
2018-04-11T08:07:07.887Z,9.00
2018-04-11T08:09:40.289Z,9.20
2018-04-11T08:12:12.901Z,9.20
2018-04-11T08:14:46.170Z,9.40
2018-04-11T08:17:19.278Z,9.50
2018-04-11T08:19:52.432Z,9.60
2018-04-11T08:22:24.956Z,9.50
2018-04-11T08:24:58.208Z,9.80
2018-04-11T08:27:31.401Z,9.90
2018-04-11T08:30:04.029Z,9.80
2018-04-11T08:32:36.409Z,9.90
2018-04-11T08:35:08.963Z,10.00
2018-04-11T08:37:41.360Z,10.10
2018-04-11T08:40:14.461Z,10.20
2018-04-11T08:42:46.999Z,10.20
2018-04-11T08:45:19.352Z,10.20
2018-04-11T08:47:52.461Z,10.40
2018-04-11T08:50:24.850Z,10.30
2018-04-11T08:52:57.277Z,10.50
2018-04-11T08:55:30.134Z,10.50
2018-04-11T08:58:02.456Z,10.60
2018-04-11T09:00:34.854Z,10.70
2018-04-11T09:03:07.569Z,10.70
2018-04-11T09:05:40.322Z,10.80
2018-04-11T09:08:12.939Z,10.90
2018-04-11T09:10:45.459Z,11.00
2018-04-11T09:13:18.058Z,11.10
2018-04-11T09:15:50.729Z,11.20
2018-04-11T09:18:23.275Z,11.30
2018-04-11T09:20:56.039Z,11.30
2018-04-11T09:23:28.703Z,11.40
2018-04-11T09:26:01.375Z,11.50
2018-04-11T09:28:33.967Z,11.60
2018-04-11T09:31:06.625Z,11.60
2018-04-11T09:33:39.161Z,11.80
2018-04-11T09:36:11.513Z,11.90
2018-04-11T09:38:43.915Z,11.90
2018-04-11T09:41:16.210Z,11.90
2018-04-11T09:43:49.524Z,12.10
2018-04-11T09:46:21.879Z,12.00
2018-04-11T09:48:55.450Z,12.40
2018-04-11T09:51:27.850Z,12.40
2018-04-11T09:54:00.259Z,12.50
2018-04-11T09:56:32.622Z,12.50
2018-04-11T09:59:05.802Z,12.60
2018-04-11T10:01:44.230Z,12.50
2018-04-11T10:04:16.711Z,12.70
2018-04-11T10:06:49.362Z,12.60
2018-04-11T10:09:21.996Z,12.70
2018-04-11T10:11:54.852Z,12.80
2018-04-11T10:14:27.530Z,13.10
2018-04-11T10:17:00.223Z,13.30
2018-04-11T10:19:33.615Z,13.70
2018-04-11T10:22:06.364Z,13.70
2018-04-11T10:24:38.996Z,13.70
2018-04-11T10:27:12.488Z,13.80
2018-04-11T10:29:45.084Z,13.70
2018-04-11T10:32:17.702Z,13.80
2018-04-11T10:34:50.242Z,13.90
2018-04-11T10:37:22.997Z,14.00
2018-04-11T10:39:56.484Z,14.20
2018-04-11T10:42:29.065Z,14.20
2018-04-11T10:45:01.418Z,14.20
2018-04-11T10:47:33.834Z,14.40
2018-04-11T10:50:06.151Z,14.70
2018-04-11T10:52:38.538Z,15.10
2018-04-11T10:55:10.900Z,14.90
2018-04-11T10:57:46.932Z,14.80
2018-04-11T11:00:20.106Z,14.80
2018-04-11T11:02:52.582Z,14.70
2018-04-11T11:05:25.202Z,15.00
2018-04-11T11:07:57.710Z,15.00
2018-04-11T11:10:30.266Z,15.00
2018-04-11T11:13:02.719Z,14.90
2018-04-11T11:15:35.254Z,14.90
2018-04-11T11:18:07.602Z,14.90
2018-04-11T11:20:49.002Z,14.90
2018-04-11T11:23:21.478Z,15.00
2018-04-11T11:25:55.755Z,15.10
2018-04-11T11:28:29.052Z,15.20
2018-04-11T11:31:01.483Z,15.10
2018-04-11T11:33:33.791Z,15.20
2018-04-11T11:36:06.226Z,15.60
2018-04-11T11:38:38.783Z,15.50
2018-04-11T11:41:12.050Z,15.50
2018-04-11T11:43:44.443Z,15.50
2018-04-11T11:46:16.780Z,15.50
2018-04-11T11:48:49.840Z,15.60
2018-04-11T11:51:23.128Z,15.60
2018-04-11T11:53:56.217Z,15.50
2018-04-11T11:56:28.892Z,15.60
2018-04-11T11:59:01.494Z,15.60
2018-04-11T12:01:34.823Z,15.80
2018-04-11T12:04:07.315Z,15.80
2018-04-11T12:06:39.699Z,15.80
2018-04-11T12:09:12.116Z,15.90
2018-04-11T12:11:44.438Z,15.90
2018-04-11T12:14:16.768Z,16.00
2018-04-11T12:16:49.186Z,16.00
2018-04-11T12:19:21.644Z,16.10
2018-04-11T12:21:54.030Z,16.10
2018-04-11T12:24:26.414Z,16.10
2018-04-11T12:26:58.795Z,16.20
2018-04-11T12:29:31.188Z,16.20
2018-04-11T12:32:03.626Z,16.30
2018-04-11T12:34:36.096Z,16.30
2018-04-11T12:37:08.508Z,16.40
2018-04-11T12:39:40.888Z,16.40
2018-04-11T12:42:13.687Z,16.40
2018-04-11T12:44:46.121Z,16.40
2018-04-11T12:47:19.210Z,16.60
2018-04-11T12:49:51.548Z,16.60
2018-04-11T12:52:23.847Z,16.70
2018-04-11T12:54:56.263Z,16.70
2018-04-11T12:57:28.620Z,16.80
2018-04-11T13:00:00.962Z,16.80
2018-04-11T13:02:33.372Z,16.80
2018-04-11T13:05:05.823Z,16.80
2018-04-11T13:07:38.185Z,16.90
2018-04-11T13:10:10.627Z,16.90
2018-04-11T13:12:43.124Z,16.90
2018-04-11T13:15:15.403Z,17.00
2018-04-11T13:17:48.443Z,17.00
2018-04-11T13:20:20.994Z,17.00
2018-04-11T13:22:53.718Z,17.10
2018-04-11T13:25:26.034Z,17.10
2018-04-11T13:27:58.466Z,17.10
2018-04-11T13:30:30.835Z,17.20
2018-04-11T13:33:03.370Z,17.30
2018-04-11T13:35:35.762Z,17.30
2018-04-11T13:38:08.231Z,17.30
2018-04-11T13:40:40.582Z,17.40
2018-04-11T13:43:13.125Z,17.50
2018-04-11T13:45:46.262Z,17.60
2018-04-11T13:48:18.598Z,17.60
2018-04-11T13:50:50.979Z,17.70
2018-04-11T13:53:23.367Z,17.70
2018-04-11T13:55:55.712Z,17.90
2018-04-11T13:58:28.199Z,18.00
2018-04-11T14:01:01.213Z,18.00
2018-04-11T14:03:33.672Z,17.90
2018-04-11T14:06:06.117Z,17.90
2018-04-11T14:08:38.511Z,18.00
2018-04-11T14:11:10.872Z,17.90
2018-04-11T14:13:43.917Z,17.90
2018-04-11T14:16:16.275Z,17.90
2018-04-11T14:18:48.684Z,17.90
2018-04-11T14:21:21.051Z,17.90
2018-04-11T14:23:53.492Z,17.90
2018-04-11T14:26:25.918Z,17.90
2018-04-11T14:28:58.430Z,17.90
2018-04-11T14:31:30.947Z,17.90
2018-04-11T14:34:03.362Z,17.90
2018-04-11T14:36:35.680Z,17.90
2018-04-11T14:39:08.186Z,17.90
2018-04-11T14:41:40.433Z,17.90
2018-04-11T14:44:13.653Z,18.00
2018-04-11T14:46:45.989Z,17.90
2018-04-11T14:49:19.246Z,18.00
2018-04-11T14:51:51.778Z,18.00
2018-04-11T14:54:24.957Z,18.00
2018-04-11T14:56:58.118Z,18.10
2018-04-11T14:59:31.182Z,18.10
2018-04-11T15:02:05.607Z,18.10
2018-04-11T15:04:37.898Z,18.10
2018-04-11T15:07:10.330Z,18.10
2018-04-11T15:09:42.818Z,18.10
2018-04-11T15:12:16.166Z,18.20
2018-04-11T15:14:48.569Z,18.10
2018-04-11T15:17:20.950Z,18.20
2018-04-11T15:19:53.312Z,18.20
2018-04-11T15:22:25.619Z,18.10
2018-04-11T15:24:58.711Z,18.10
2018-04-11T15:27:31.253Z,18.00
2018-04-11T15:30:03.707Z,18.10
2018-04-11T15:32:36.164Z,18.10
2018-04-11T15:35:08.680Z,18.10
2018-04-11T15:37:41.000Z,18.10
2018-04-11T15:40:13.427Z,18.10
2018-04-11T15:42:45.927Z,18.10
2018-04-11T15:45:18.288Z,18.10
2018-04-11T15:47:50.677Z,18.20
2018-04-11T15:50:23.734Z,18.20
2018-04-11T15:52:56.954Z,18.20
2018-04-11T15:55:29.460Z,18.10
2018-04-11T15:58:02.626Z,18.20
2018-04-11T16:00:35.822Z,18.30
2018-04-11T16:03:08.325Z,18.20
2018-04-11T16:05:40.793Z,18.30
2018-04-11T16:08:13.171Z,18.30
2018-04-11T16:10:46.257Z,18.30
2018-04-11T16:13:19.398Z,18.30
2018-04-11T16:15:51.946Z,18.20
2018-04-11T16:18:24.202Z,18.30
2018-04-11T16:20:56.716Z,18.30
2018-04-11T16:23:29.146Z,18.30
2018-04-11T16:26:01.608Z,18.40
2018-04-11T16:28:34.122Z,18.40
2018-04-11T16:31:06.437Z,18.30
2018-04-11T16:33:38.754Z,18.30
2018-04-11T16:36:11.150Z,18.30
2018-04-11T16:38:43.515Z,18.30
2018-04-11T16:41:16.625Z,18.20
2018-04-11T16:43:48.985Z,18.20
2018-04-11T16:46:21.294Z,18.20
2018-04-11T16:48:53.635Z,18.10
2018-04-11T16:51:25.994Z,18.10
2018-04-11T16:53:58.493Z,18.10
2018-04-11T16:56:31.084Z,18.10
2018-04-11T16:59:04.377Z,18.10
2018-04-11T17:01:36.751Z,18.10
2018-04-11T17:04:09.091Z,18.10
2018-04-11T17:06:41.405Z,18.10
2018-04-11T17:09:13.918Z,18.10
2018-04-11T17:11:46.273Z,18.10
2018-04-11T17:14:18.813Z,18.10
2018-04-11T17:16:51.381Z,18.00
2018-04-11T17:19:24.590Z,18.00
2018-04-11T17:22:10.102Z,18.00
2018-04-11T17:24:59.394Z,18.00
2018-04-11T17:27:44.747Z,18.00
2018-04-11T17:30:29.482Z,17.90
2018-04-11T17:33:02.664Z,17.90
2018-04-11T17:35:35.061Z,17.90
2018-04-11T17:38:07.469Z,17.90
2018-04-11T17:40:40.636Z,17.80
2018-04-11T17:43:12.967Z,17.70
2018-04-11T17:45:45.282Z,17.80
2018-04-11T17:48:17.729Z,17.70
2018-04-11T17:50:49.992Z,17.60
2018-04-11T17:53:22.343Z,17.50
2018-04-11T17:55:54.705Z,17.50
2018-04-11T17:58:27.103Z,17.40
2018-04-11T18:01:09.627Z,17.40
2018-04-11T18:03:42.270Z,17.40
2018-04-11T18:06:14.718Z,17.30
2018-04-11T18:08:46.965Z,17.30
2018-04-11T18:11:19.410Z,17.30
2018-04-11T18:13:51.790Z,17.30
2018-04-11T18:16:24.190Z,17.20
2018-04-11T18:18:56.639Z,17.20
2018-04-11T18:21:29.102Z,17.10
2018-04-11T18:24:01.577Z,17.10
2018-04-11T18:26:34.066Z,17.10
2018-04-11T18:29:07.174Z,17.00
2018-04-11T18:31:39.536Z,17.00
2018-04-11T18:34:11.939Z,17.00
2018-04-11T18:36:44.378Z,17.00
2018-04-11T18:39:16.974Z,16.90
2018-04-11T18:41:49.279Z,16.90
2018-04-11T18:44:22.501Z,16.80
2018-04-11T18:46:54.925Z,16.70
2018-04-11T18:49:27.386Z,16.80
2018-04-11T18:51:59.802Z,16.80
2018-04-11T18:54:32.071Z,16.80
2018-04-11T18:57:04.410Z,16.80
2018-04-11T18:59:36.821Z,16.70
2018-04-11T19:02:09.332Z,16.70
2018-04-11T19:04:41.962Z,16.60
2018-04-11T19:07:15.325Z,16.50
2018-04-11T19:09:47.813Z,16.50
2018-04-11T19:12:20.235Z,16.50
2018-04-11T19:14:52.790Z,16.50
2018-04-11T19:17:25.326Z,16.40
2018-04-11T19:19:57.647Z,16.40
2018-04-11T19:22:29.986Z,16.30
2018-04-11T19:25:02.650Z,16.30
2018-04-11T19:27:35.805Z,16.30
2018-04-11T19:30:08.239Z,16.20
2018-04-11T19:32:40.518Z,16.20
2018-04-11T19:35:12.974Z,16.20
2018-04-11T19:37:45.330Z,16.10
2018-04-11T19:40:18.696Z,16.10
2018-04-11T19:42:51.046Z,16.10
2018-04-11T19:45:23.415Z,16.10
2018-04-11T19:47:55.701Z,16.10
2018-04-11T19:50:28.040Z,16.00
2018-04-11T19:53:00.483Z,16.00
2018-04-11T19:55:32.833Z,16.00
2018-04-11T19:58:05.230Z,16.00
2018-04-11T20:00:38.400Z,16.00
2018-04-11T20:03:04.678Z,15.90
2018-04-11T20:05:30.978Z,16.00
2018-04-11T20:07:57.338Z,16.00
2018-04-11T20:10:23.602Z,16.00
2018-04-11T20:12:50.618Z,16.00
2018-04-11T20:15:16.899Z,15.90
2018-04-11T20:17:43.190Z,15.90
2018-04-11T20:20:10.224Z,15.80
2018-04-11T20:22:36.504Z,15.80
2018-04-11T20:25:02.777Z,15.80
2018-04-11T20:27:29.138Z,15.80
2018-04-11T20:29:56.156Z,15.80
2018-04-11T20:32:22.458Z,15.80
2018-04-11T20:34:48.767Z,15.80
2018-04-11T20:40:07.993Z,15.80
2018-04-11T20:42:34.290Z,15.80
2018-04-11T20:45:00.599Z,15.70
2018-04-11T20:47:26.873Z,15.70
2018-04-11T20:49:53.147Z,15.70
2018-04-11T20:52:19.412Z,15.60
2018-04-11T20:54:45.710Z,15.50
2018-04-11T20:57:11.998Z,15.50
2018-04-11T20:59:38.310Z,15.40
2018-04-11T21:02:07.942Z,15.30
2018-04-11T21:04:34.274Z,15.30
2018-04-11T21:07:00.545Z,15.30
2018-04-11T21:09:28.022Z,15.30
2018-04-11T21:11:54.254Z,15.30
2018-04-11T21:14:20.478Z,15.20
2018-04-11T21:16:46.682Z,15.20
2018-04-11T21:19:12.958Z,15.20
2018-04-11T21:21:39.182Z,15.10
2018-04-11T21:24:05.482Z,15.10
2018-04-11T21:26:31.755Z,15.00
2018-04-11T21:28:58.001Z,15.00
2018-04-11T21:31:24.267Z,14.90
2018-04-11T21:33:50.510Z,14.90
2018-04-11T21:36:16.711Z,14.90
2018-04-11T21:38:43.037Z,14.90
2018-04-11T21:41:10.051Z,15.00
2018-04-11T21:43:36.265Z,14.90
2018-04-11T21:46:02.525Z,15.00
2018-04-11T21:48:29.504Z,15.00
2018-04-11T21:50:55.727Z,15.00
2018-04-11T21:53:21.919Z,15.00
2018-04-11T21:55:48.196Z,15.00
2018-04-11T21:58:14.490Z,15.00
2018-04-11T22:00:40.776Z,15.00
2018-04-11T22:03:07.003Z,15.00
2018-04-11T22:05:33.233Z,15.00
2018-04-11T22:07:59.456Z,15.00
2018-04-11T22:10:25.684Z,15.00
2018-04-11T22:12:51.917Z,15.00
2018-04-11T22:15:18.158Z,15.00
2018-04-11T22:17:44.403Z,15.00
2018-04-11T22:20:11.408Z,15.00
2018-04-11T22:22:37.682Z,15.00
2018-04-11T22:25:03.955Z,15.00
2018-04-11T22:27:30.268Z,15.00
2018-04-11T22:29:56.575Z,15.00
2018-04-11T22:32:23.550Z,15.00
2018-04-11T22:34:49.783Z,14.90
2018-04-11T22:37:16.045Z,15.00
2018-04-11T22:39:42.285Z,15.00
2018-04-11T22:42:08.574Z,15.00
2018-04-11T22:44:34.834Z,15.00
2018-04-11T22:47:01.026Z,15.00
2018-04-11T22:49:27.284Z,15.00
2018-04-11T22:51:53.501Z,14.90
2018-04-11T22:54:19.742Z,14.90
2018-04-11T22:56:45.983Z,14.90
2018-04-11T22:59:12.198Z,14.90
2018-04-11T23:01:38.439Z,14.90
2018-04-11T23:04:04.673Z,14.90
2018-04-11T23:06:30.922Z,14.90
2018-04-11T23:08:57.912Z,14.90
2018-04-11T23:11:24.184Z,14.90
2018-04-11T23:13:50.475Z,14.90
2018-04-11T23:16:16.797Z,14.90
2018-04-11T23:18:43.034Z,14.90
2018-04-11T23:21:09.285Z,14.90
2018-04-11T23:23:35.540Z,14.80
2018-04-11T23:26:02.537Z,14.90
2018-04-11T23:28:28.742Z,14.80
2018-04-11T23:30:54.975Z,14.90
2018-04-11T23:33:21.267Z,14.80
2018-04-11T23:35:48.245Z,14.70
2018-04-11T23:38:14.537Z,14.70
2018-04-11T23:40:41.502Z,14.70
2018-04-11T23:43:07.731Z,14.60
2018-04-11T23:45:33.981Z,14.60
2018-04-11T23:48:00.177Z,14.60
2018-04-11T23:50:27.130Z,14.50
2018-04-11T23:52:53.377Z,14.50
2018-04-11T23:55:19.582Z,14.50
2018-04-11T23:57:46.577Z,14.50
